sensor_id;sensor_type;location;lat;lon;timestamp;P1;durP1;ratioP1;P2;durP2;ratioP2
51957;SDS011;41120;51.820;20.804;2022-08-19T00:00:22;24.37;;;17.53;;
51957;SDS011;41120;51.820;20.804;2022-08-19T00:03:03;23.77;;;17.57;;
51957;SDS011;41120;51.820;20.804;2022-08-19T00:05:36;22.33;;;16.70;;
51957;SDS011;41120;51.820;20.804;2022-08-19T00:11:01;24.13;;;17.80;;
51957;SDS011;41120;51.820;20.804;2022-08-19T00:13:29;20.53;;;17.20;;
51957;SDS011;41120;51.820;20.804;2022-08-19T00:15:59;20.70;;;16.70;;
51957;SDS011;41120;51.820;20.804;2022-08-19T00:24:03;20.57;;;17.67;;
51957;SDS011;41120;51.820;20.804;2022-08-19T00:26:36;21.33;;;17.13;;
51957;SDS011;41120;51.820;20.804;2022-08-19T00:31:58;22.47;;;17.87;;
51957;SDS011;41120;51.820;20.804;2022-08-19T00:34:32;25.10;;;18.20;;
51957;SDS011;41120;51.820;20.804;2022-08-19T00:37:16;24.97;;;17.67;;
51957;SDS011;41120;51.820;20.804;2022-08-19T00:39:49;23.20;;;17.83;;
51957;SDS011;41120;51.820;20.804;2022-08-19T00:42:24;21.53;;;18.53;;
51957;SDS011;41120;51.820;20.804;2022-08-19T00:47:47;21.00;;;18.33;;
51957;SDS011;41120;51.820;20.804;2022-08-19T00:50:15;20.87;;;17.97;;
51957;SDS011;41120;51.820;20.804;2022-08-19T00:55:28;22.93;;;17.77;;
51957;SDS011;41120;51.820;20.804;2022-08-19T00:58:07;22.83;;;18.00;;
51957;SDS011;41120;51.820;20.804;2022-08-19T01:00:37;26.37;;;18.00;;
51957;SDS011;41120;51.820;20.804;2022-08-19T01:03:06;20.90;;;17.33;;
51957;SDS011;41120;51.820;20.804;2022-08-19T01:08:59;20.70;;;17.60;;
51957;SDS011;41120;51.820;20.804;2022-08-19T01:11:26;22.70;;;19.37;;
51957;SDS011;41120;51.820;20.804;2022-08-19T01:13:54;23.00;;;18.43;;
51957;SDS011;41120;51.820;20.804;2022-08-19T01:16:28;21.77;;;19.00;;
51957;SDS011;41120;51.820;20.804;2022-08-19T01:27:40;28.30;;;19.63;;
51957;SDS011;41120;51.820;20.804;2022-08-19T01:30:14;25.20;;;20.13;;
51957;SDS011;41120;51.820;20.804;2022-08-19T01:32:54;22.80;;;20.03;;
51957;SDS011;41120;51.820;20.804;2022-08-19T01:35:31;24.77;;;20.40;;
51957;SDS011;41120;51.820;20.804;2022-08-19T01:37:59;27.53;;;20.53;;
51957;SDS011;41120;51.820;20.804;2022-08-19T01:40:38;29.80;;;20.90;;
51957;SDS011;41120;51.820;20.804;2022-08-19T01:43:14;27.73;;;21.03;;
51957;SDS011;41120;51.820;20.804;2022-08-19T01:45:42;26.70;;;21.07;;
51957;SDS011;41120;51.820;20.804;2022-08-19T01:50:54;26.43;;;21.00;;
51957;SDS011;41120;51.820;20.804;2022-08-19T01:53:38;27.70;;;22.40;;
51957;SDS011;41120;51.820;20.804;2022-08-19T01:56:06;27.03;;;22.47;;
51957;SDS011;41120;51.820;20.804;2022-08-19T01:58:42;27.73;;;22.40;;
51957;SDS011;41120;51.820;20.804;2022-08-19T02:01:27;29.10;;;23.67;;
51957;SDS011;41120;51.820;20.804;2022-08-19T02:04:05;26.87;;;22.73;;
51957;SDS011;41120;51.820;20.804;2022-08-19T02:09:30;31.97;;;25.33;;
51957;SDS011;41120;51.820;20.804;2022-08-19T02:11:56;33.10;;;24.83;;
51957;SDS011;41120;51.820;20.804;2022-08-19T02:16:57;31.30;;;25.73;;
51957;SDS011;41120;51.820;20.804;2022-08-19T02:19:25;34.70;;;26.37;;
51957;SDS011;41120;51.820;20.804;2022-08-19T02:28:04;33.90;;;25.57;;
51957;SDS011;41120;51.820;20.804;2022-08-19T02:30:38;34.87;;;26.27;;
51957;SDS011;41120;51.820;20.804;2022-08-19T02:35:42;37.57;;;26.30;;
51957;SDS011;41120;51.820;20.804;2022-08-19T02:38:19;33.50;;;25.83;;
51957;SDS011;41120;51.820;20.804;2022-08-19T02:43:28;34.00;;;26.07;;
51957;SDS011;41120;51.820;20.804;2022-08-19T02:45:57;30.77;;;24.97;;
51957;SDS011;41120;51.820;20.804;2022-08-19T02:48:29;31.43;;;25.10;;
51957;SDS011;41120;51.820;20.804;2022-08-19T02:54:03;33.33;;;25.87;;
51957;SDS011;41120;51.820;20.804;2022-08-19T02:56:30;32.90;;;26.40;;
51957;SDS011;41120;51.820;20.804;2022-08-19T02:59:06;32.43;;;26.57;;
51957;SDS011;41120;51.820;20.804;2022-08-19T03:01:52;31.70;;;26.47;;
51957;SDS011;41120;51.820;20.804;2022-08-19T03:04:24;35.40;;;27.17;;
51957;SDS011;41120;51.820;20.804;2022-08-19T03:07:04;36.10;;;27.53;;
51957;SDS011;41120;51.820;20.804;2022-08-19T03:09:40;36.50;;;28.00;;
51957;SDS011;41120;51.820;20.804;2022-08-19T03:12:08;33.73;;;27.90;;
51957;SDS011;41120;51.820;20.804;2022-08-19T03:14:39;31.73;;;26.47;;
51957;SDS011;41120;51.820;20.804;2022-08-19T03:17:06;40.80;;;27.10;;
51957;SDS011;41120;51.820;20.804;2022-08-19T03:19:36;34.10;;;27.53;;
51957;SDS011;41120;51.820;20.804;2022-08-19T03:22:19;40.55;;;27.42;;
51957;SDS011;41120;51.820;20.804;2022-08-19T03:24:46;35.78;;;27.48;;
51957;SDS011;41120;51.820;20.804;2022-08-19T03:27:29;36.00;;;27.20;;
51957;SDS011;41120;51.820;20.804;2022-08-19T03:29:57;33.30;;;27.43;;
51957;SDS011;41120;51.820;20.804;2022-08-19T03:35:12;34.20;;;26.10;;
51957;SDS011;41120;51.820;20.804;2022-08-19T03:37:39;36.83;;;27.27;;
51957;SDS011;41120;51.820;20.804;2022-08-19T03:40:05;29.57;;;26.10;;
51957;SDS011;41120;51.820;20.804;2022-08-19T03:42:38;32.63;;;26.10;;
51957;SDS011;41120;51.820;20.804;2022-08-19T03:50:41;30.53;;;24.07;;
51957;SDS011;41120;51.820;20.804;2022-08-19T03:56:14;26.83;;;23.77;;
51957;SDS011;41120;51.820;20.804;2022-08-19T03:58:55;33.53;;;24.30;;
51957;SDS011;41120;51.820;20.804;2022-08-19T04:01:34;26.60;;;23.37;;
51957;SDS011;41120;51.820;20.804;2022-08-19T04:04:01;30.57;;;22.67;;
51957;SDS011;41120;51.820;20.804;2022-08-19T04:06:44;26.10;;;21.63;;
51957;SDS011;41120;51.820;20.804;2022-08-19T04:11:51;30.70;;;22.40;;
51957;SDS011;41120;51.820;20.804;2022-08-19T04:14:22;28.03;;;21.73;;
51957;SDS011;41120;51.820;20.804;2022-08-19T04:19:30;23.37;;;20.40;;
51957;SDS011;41120;51.820;20.804;2022-08-19T04:22:04;26.40;;;20.00;;
51957;SDS011;41120;51.820;20.804;2022-08-19T04:24:34;27.97;;;19.70;;
51957;SDS011;41120;51.820;20.804;2022-08-19T04:35:01;23.77;;;18.77;;
51957;SDS011;41120;51.820;20.804;2022-08-19T04:37:42;21.77;;;18.13;;
51957;SDS011;41120;51.820;20.804;2022-08-19T04:40:16;21.45;;;17.83;;
51957;SDS011;41120;51.820;20.804;2022-08-19T04:48:25;22.20;;;18.07;;
51957;SDS011;41120;51.820;20.804;2022-08-19T04:50:54;24.57;;;17.97;;
51957;SDS011;41120;51.820;20.804;2022-08-19T04:53:28;30.33;;;18.53;;
51957;SDS011;41120;51.820;20.804;2022-08-19T04:55:58;19.67;;;17.50;;
51957;SDS011;41120;51.820;20.804;2022-08-19T05:01:27;21.87;;;18.13;;
51957;SDS011;41120;51.820;20.804;2022-08-19T05:04:01;20.93;;;18.30;;
51957;SDS011;41120;51.820;20.804;2022-08-19T05:09:03;24.83;;;18.33;;
51957;SDS011;41120;51.820;20.804;2022-08-19T05:11:34;23.83;;;18.30;;
51957;SDS011;41120;51.820;20.804;2022-08-19T05:17:25;27.20;;;21.02;;
51957;SDS011;41120;51.820;20.804;2022-08-19T05:22:50;20.53;;;17.40;;
51957;SDS011;41120;51.820;20.804;2022-08-19T05:25:30;18.77;;;16.17;;
51957;SDS011;41120;51.820;20.804;2022-08-19T05:30:32;22.63;;;16.47;;
51957;SDS011;41120;51.820;20.804;2022-08-19T05:35:35;18.57;;;15.57;;
51957;SDS011;41120;51.820;20.804;2022-08-19T05:40:49;22.93;;;16.23;;
51957;SDS011;41120;51.820;20.804;2022-08-19T05:43:33;19.33;;;16.13;;
51957;SDS011;41120;51.820;20.804;2022-08-19T05:46:05;27.90;;;16.17;;
51957;SDS011;41120;51.820;20.804;2022-08-19T05:48:33;20.47;;;16.70;;
51957;SDS011;41120;51.820;20.804;2022-08-19T05:51:07;21.70;;;16.17;;
51957;SDS011;41120;51.820;20.804;2022-08-19T05:56:39;25.03;;;15.73;;
51957;SDS011;41120;51.820;20.804;2022-08-19T05:59:12;21.60;;;16.03;;
51957;SDS011;41120;51.820;20.804;2022-08-19T06:01:54;21.87;;;15.50;;
51957;SDS011;41120;51.820;20.804;2022-08-19T06:04:25;20.65;;;14.00;;
51957;SDS011;41120;51.820;20.804;2022-08-19T06:06:53;18.07;;;13.07;;
51957;SDS011;41120;51.820;20.804;2022-08-19T06:12:00;14.63;;;12.52;;
51957;SDS011;41120;51.820;20.804;2022-08-19T06:14:34;18.70;;;14.07;;
51957;SDS011;41120;51.820;20.804;2022-08-19T06:17:01;17.13;;;12.90;;
51957;SDS011;41120;51.820;20.804;2022-08-19T06:19:29;21.40;;;13.20;;
51957;SDS011;41120;51.820;20.804;2022-08-19T06:21:56;18.33;;;12.63;;
51957;SDS011;41120;51.820;20.804;2022-08-19T06:24:25;17.43;;;13.20;;
51957;SDS011;41120;51.820;20.804;2022-08-19T06:26:55;14.75;;;12.52;;
51957;SDS011;41120;51.820;20.804;2022-08-19T06:29:23;14.73;;;11.80;;
51957;SDS011;41120;51.820;20.804;2022-08-19T06:31:51;15.25;;;11.15;;
51957;SDS011;41120;51.820;20.804;2022-08-19T06:34:29;16.58;;;10.15;;
51957;SDS011;41120;51.820;20.804;2022-08-19T06:36:59;12.52;;;9.68;;
51957;SDS011;41120;51.820;20.804;2022-08-19T06:39:35;11.90;;;10.37;;
51957;SDS011;41120;51.820;20.804;2022-08-19T06:42:05;15.25;;;10.13;;
51957;SDS011;41120;51.820;20.804;2022-08-19T06:44:35;14.88;;;10.20;;
51957;SDS011;41120;51.820;20.804;2022-08-19T06:47:06;11.18;;;9.60;;
51957;SDS011;41120;51.820;20.804;2022-08-19T06:49:49;12.77;;;10.18;;
51957;SDS011;41120;51.820;20.804;2022-08-19T06:52:21;13.93;;;10.30;;
51957;SDS011;41120;51.820;20.804;2022-08-19T06:54:58;14.32;;;9.30;;
51957;SDS011;41120;51.820;20.804;2022-08-19T07:03:20;17.50;;;9.88;;
51957;SDS011;41120;51.820;20.804;2022-08-19T07:11:31;12.52;;;9.13;;
51957;SDS011;41120;51.820;20.804;2022-08-19T07:14:04;16.73;;;9.32;;
51957;SDS011;41120;51.820;20.804;2022-08-19T07:16:37;10.25;;;8.27;;
51957;SDS011;41120;51.820;20.804;2022-08-19T07:19:11;15.13;;;9.32;;
51957;SDS011;41120;51.820;20.804;2022-08-19T07:21:47;12.70;;;9.68;;
51957;SDS011;41120;51.820;20.804;2022-08-19T07:26:57;20.02;;;9.85;;
51957;SDS011;41120;51.820;20.804;2022-08-19T07:29:27;16.38;;;8.63;;
51957;SDS011;41120;51.820;20.804;2022-08-19T07:31:55;11.85;;;8.98;;
51957;SDS011;41120;51.820;20.804;2022-08-19T07:34:25;11.30;;;7.50;;
51957;SDS011;41120;51.820;20.804;2022-08-19T07:39:27;13.05;;;7.30;;
51957;SDS011;41120;51.820;20.804;2022-08-19T07:42:11;10.77;;;7.28;;
51957;SDS011;41120;51.820;20.804;2022-08-19T07:44:42;9.98;;;6.97;;
51957;SDS011;41120;51.820;20.804;2022-08-19T07:50:00;14.65;;;7.35;;
51957;SDS011;41120;51.820;20.804;2022-08-19T07:52:26;12.93;;;8.35;;
51957;SDS011;41120;51.820;20.804;2022-08-19T07:54:56;13.63;;;8.48;;
51957;SDS011;41120;51.820;20.804;2022-08-19T07:57:29;13.75;;;7.93;;
51957;SDS011;41120;51.820;20.804;2022-08-19T08:00:06;11.75;;;7.93;;
51957;SDS011;41120;51.820;20.804;2022-08-19T08:02:36;11.93;;;7.72;;
51957;SDS011;41120;51.820;20.804;2022-08-19T08:07:56;14.07;;;7.68;;
51957;SDS011;41120;51.820;20.804;2022-08-19T08:10:40;13.00;;;6.95;;
51957;SDS011;41120;51.820;20.804;2022-08-19T08:13:19;7.97;;;6.43;;
51957;SDS011;41120;51.820;20.804;2022-08-19T08:15:46;11.15;;;7.45;;
51957;SDS011;41120;51.820;20.804;2022-08-19T08:21:06;9.45;;;7.05;;
51957;SDS011;41120;51.820;20.804;2022-08-19T08:23:45;43.00;;;9.02;;
51957;SDS011;41120;51.820;20.804;2022-08-19T08:27:35;10.13;;;7.30;;
51957;SDS011;41120;51.820;20.804;2022-08-19T08:30:06;11.63;;;7.07;;
51957;SDS011;41120;51.820;20.804;2022-08-19T08:32:37;13.75;;;7.47;;
51957;SDS011;41120;51.820;20.804;2022-08-19T08:35:08;9.50;;;6.60;;
51957;SDS011;41120;51.820;20.804;2022-08-19T08:37:38;13.50;;;7.65;;
51957;SDS011;41120;51.820;20.804;2022-08-19T08:51:21;13.50;;;6.95;;
51957;SDS011;41120;51.820;20.804;2022-08-19T08:54:07;8.25;;;6.15;;
51957;SDS011;41120;51.820;20.804;2022-08-19T08:56:45;11.40;;;6.78;;
51957;SDS011;41120;51.820;20.804;2022-08-19T09:02:06;9.10;;;6.32;;
51957;SDS011;41120;51.820;20.804;2022-08-19T09:04:40;10.13;;;6.10;;
51957;SDS011;41120;51.820;20.804;2022-08-19T09:10:02;8.35;;;5.82;;
51957;SDS011;41120;51.820;20.804;2022-08-19T09:15:47;9.63;;;6.38;;
51957;SDS011;41120;51.820;20.804;2022-08-19T09:18:23;13.77;;;6.68;;
51957;SDS011;41120;51.820;20.804;2022-08-19T09:21:04;7.95;;;6.20;;
51957;SDS011;41120;51.820;20.804;2022-08-19T09:23:47;8.40;;;5.63;;
51957;SDS011;41120;51.820;20.804;2022-08-19T09:26:15;11.43;;;6.80;;
51957;SDS011;41120;51.820;20.804;2022-08-19T09:34:00;9.65;;;6.50;;
51957;SDS011;41120;51.820;20.804;2022-08-19T09:36:32;10.90;;;5.75;;
51957;SDS011;41120;51.820;20.804;2022-08-19T09:38:59;9.50;;;6.45;;
51957;SDS011;41120;51.820;20.804;2022-08-19T09:41:30;9.77;;;6.03;;
51957;SDS011;41120;51.820;20.804;2022-08-19T09:46:25;8.35;;;5.72;;
51957;SDS011;41120;51.820;20.804;2022-08-19T09:49:01;9.10;;;6.38;;
51957;SDS011;41120;51.820;20.804;2022-08-19T09:51:35;11.18;;;6.47;;
51957;SDS011;41120;51.820;20.804;2022-08-19T09:54:11;11.43;;;7.07;;
51957;SDS011;41120;51.820;20.804;2022-08-19T09:56:37;8.52;;;6.15;;
51957;SDS011;41120;51.820;20.804;2022-08-19T09:59:03;10.60;;;6.00;;
51957;SDS011;41120;51.820;20.804;2022-08-19T10:01:30;10.32;;;5.88;;
51957;SDS011;41120;51.820;20.804;2022-08-19T10:04:03;11.70;;;6.20;;
51957;SDS011;41120;51.820;20.804;2022-08-19T10:06:41;8.55;;;6.13;;
51957;SDS011;41120;51.820;20.804;2022-08-19T10:09:22;8.98;;;5.93;;
51957;SDS011;41120;51.820;20.804;2022-08-19T10:11:48;15.25;;;5.82;;
51957;SDS011;41120;51.820;20.804;2022-08-19T10:19:52;7.32;;;5.72;;
51957;SDS011;41120;51.820;20.804;2022-08-19T10:22:24;9.85;;;5.30;;
51957;SDS011;41120;51.820;20.804;2022-08-19T10:24:51;8.68;;;6.13;;
51957;SDS011;41120;51.820;20.804;2022-08-19T10:27:29;7.80;;;5.50;;
51957;SDS011;41120;51.820;20.804;2022-08-19T10:29:57;8.55;;;5.70;;
51957;SDS011;41120;51.820;20.804;2022-08-19T10:38:12;7.28;;;5.80;;
51957;SDS011;41120;51.820;20.804;2022-08-19T10:40:44;10.40;;;5.63;;
51957;SDS011;41120;51.820;20.804;2022-08-19T10:43:15;7.50;;;5.90;;
51957;SDS011;41120;51.820;20.804;2022-08-19T10:45:53;6.38;;;5.50;;
51957;SDS011;41120;51.820;20.804;2022-08-19T10:48:24;12.35;;;5.70;;
51957;SDS011;41120;51.820;20.804;2022-08-19T10:51:00;10.05;;;5.78;;
51957;SDS011;41120;51.820;20.804;2022-08-19T10:53:50;7.07;;;5.53;;
51957;SDS011;41120;51.820;20.804;2022-08-19T10:56:24;10.20;;;5.63;;
51957;SDS011;41120;51.820;20.804;2022-08-19T10:59:15;8.98;;;6.13;;
51957;SDS011;41120;51.820;20.804;2022-08-19T11:02:01;10.45;;;5.95;;
51957;SDS011;41120;51.820;20.804;2022-08-19T11:04:32;7.03;;;5.45;;
51957;SDS011;41120;51.820;20.804;2022-08-19T11:07:06;8.82;;;6.38;;
51957;SDS011;41120;51.820;20.804;2022-08-19T11:09:37;10.23;;;5.63;;
51957;SDS011;41120;51.820;20.804;2022-08-19T11:12:22;9.68;;;5.88;;
51957;SDS011;41120;51.820;20.804;2022-08-19T11:14:57;7.82;;;6.32;;
51957;SDS011;41120;51.820;20.804;2022-08-19T11:17:27;7.15;;;5.82;;
51957;SDS011;41120;51.820;20.804;2022-08-19T11:20:01;10.73;;;5.93;;
51957;SDS011;41120;51.820;20.804;2022-08-19T11:22:32;8.88;;;6.65;;
51957;SDS011;41120;51.820;20.804;2022-08-19T11:27:29;10.57;;;6.10;;
51957;SDS011;41120;51.820;20.804;2022-08-19T11:29:56;11.57;;;5.90;;
51957;SDS011;41120;51.820;20.804;2022-08-19T11:32:24;10.38;;;6.43;;
51957;SDS011;41120;51.820;20.804;2022-08-19T11:34:58;7.70;;;5.85;;
51957;SDS011;41120;51.820;20.804;2022-08-19T11:37:25;6.65;;;5.80;;
51957;SDS011;41120;51.820;20.804;2022-08-19T11:39:58;6.80;;;5.60;;
51957;SDS011;41120;51.820;20.804;2022-08-19T11:42:27;7.60;;;5.68;;
51957;SDS011;41120;51.820;20.804;2022-08-19T11:45:23;8.93;;;5.70;;
51957;SDS011;41120;51.820;20.804;2022-08-19T11:47:51;7.88;;;5.60;;
51957;SDS011;41120;51.820;20.804;2022-08-19T11:50:19;6.80;;;5.47;;
51957;SDS011;41120;51.820;20.804;2022-08-19T11:52:45;9.35;;;5.72;;
51957;SDS011;41120;51.820;20.804;2022-08-19T11:57:54;7.53;;;5.75;;
51957;SDS011;41120;51.820;20.804;2022-08-19T12:02:51;10.27;;;5.63;;
51957;SDS011;41120;51.820;20.804;2022-08-19T12:05:31;8.90;;;5.90;;
51957;SDS011;41120;51.820;20.804;2022-08-19T12:08:02;6.60;;;5.85;;
51957;SDS011;41120;51.820;20.804;2022-08-19T12:10:37;10.18;;;6.30;;
51957;SDS011;41120;51.820;20.804;2022-08-19T12:13:05;9.50;;;5.80;;
51957;SDS011;41120;51.820;20.804;2022-08-19T12:15:40;9.18;;;6.15;;
51957;SDS011;41120;51.820;20.804;2022-08-19T12:18:16;11.35;;;6.05;;
51957;SDS011;41120;51.820;20.804;2022-08-19T12:20:52;8.88;;;5.60;;
51957;SDS011;41120;51.820;20.804;2022-08-19T12:23:24;6.00;;;5.35;;
51957;SDS011;41120;51.820;20.804;2022-08-19T12:25:50;8.15;;;5.10;;
51957;SDS011;41120;51.820;20.804;2022-08-19T12:31:19;6.00;;;5.40;;
51957;SDS011;41120;51.820;20.804;2022-08-19T12:33:50;8.27;;;5.30;;
51957;SDS011;41120;51.820;20.804;2022-08-19T12:36:25;9.57;;;5.85;;
51957;SDS011;41120;51.820;20.804;2022-08-19T12:43:54;10.18;;;5.40;;
51957;SDS011;41120;51.820;20.804;2022-08-19T12:53:31;11.00;;;5.55;;
51957;SDS011;41120;51.820;20.804;2022-08-19T12:55:59;9.52;;;5.53;;
51957;SDS011;41120;51.820;20.804;2022-08-19T12:58:26;8.30;;;5.68;;
51957;SDS011;41120;51.820;20.804;2022-08-19T13:03:37;8.55;;;5.80;;
51957;SDS011;41120;51.820;20.804;2022-08-19T13:06:04;13.23;;;6.15;;
51957;SDS011;41120;51.820;20.804;2022-08-19T13:08:30;6.82;;;5.32;;
51957;SDS011;41120;51.820;20.804;2022-08-19T13:11:16;6.20;;;5.10;;
51957;SDS011;41120;51.820;20.804;2022-08-19T13:16:37;8.15;;;5.20;;
51957;SDS011;41120;51.820;20.804;2022-08-19T13:19:04;7.90;;;5.75;;
51957;SDS011;41120;51.820;20.804;2022-08-19T13:21:32;9.18;;;6.40;;
51957;SDS011;41120;51.820;20.804;2022-08-19T13:24:08;8.90;;;5.88;;
51957;SDS011;41120;51.820;20.804;2022-08-19T13:26:50;6.75;;;5.47;;
51957;SDS011;41120;51.820;20.804;2022-08-19T13:29:16;7.50;;;5.65;;
51957;SDS011;41120;51.820;20.804;2022-08-19T13:32:07;8.63;;;5.82;;
51957;SDS011;41120;51.820;20.804;2022-08-19T13:34:58;8.65;;;5.65;;
51957;SDS011;41120;51.820;20.804;2022-08-19T13:40:14;6.43;;;5.82;;
51957;SDS011;41120;51.820;20.804;2022-08-19T13:45:39;10.73;;;6.15;;
51957;SDS011;41120;51.820;20.804;2022-08-19T13:48:30;9.02;;;5.90;;
51957;SDS011;41120;51.820;20.804;2022-08-19T13:51:10;11.05;;;5.65;;
51957;SDS011;41120;51.820;20.804;2022-08-19T13:54:03;7.15;;;5.25;;
51957;SDS011;41120;51.820;20.804;2022-08-19T13:56:47;6.93;;;5.72;;
51957;SDS011;41120;51.820;20.804;2022-08-19T13:59:14;7.70;;;5.70;;
51957;SDS011;41120;51.820;20.804;2022-08-19T14:01:44;9.77;;;5.20;;
51957;SDS011;41120;51.820;20.804;2022-08-19T14:04:12;10.20;;;5.95;;
51957;SDS011;41120;51.820;20.804;2022-08-19T14:06:41;7.50;;;5.55;;
51957;SDS011;41120;51.820;20.804;2022-08-19T14:09:08;10.05;;;5.82;;
51957;SDS011;41120;51.820;20.804;2022-08-19T14:16:39;6.82;;;5.22;;
51957;SDS011;41120;51.820;20.804;2022-08-19T14:19:08;11.52;;;6.03;;
51957;SDS011;41120;51.820;20.804;2022-08-19T14:24:41;9.38;;;5.57;;
51957;SDS011;41120;51.820;20.804;2022-08-19T14:27:11;6.63;;;5.78;;
51957;SDS011;41120;51.820;20.804;2022-08-19T14:35:11;8.77;;;5.03;;
51957;SDS011;41120;51.820;20.804;2022-08-19T14:37:40;8.77;;;5.50;;
51957;SDS011;41120;51.820;20.804;2022-08-19T14:40:18;8.40;;;5.88;;
51957;SDS011;41120;51.820;20.804;2022-08-19T14:45:26;9.80;;;5.88;;
51957;SDS011;41120;51.820;20.804;2022-08-19T14:48:10;9.25;;;5.25;;
51957;SDS011;41120;51.820;20.804;2022-08-19T14:50:38;5.75;;;5.20;;
51957;SDS011;41120;51.820;20.804;2022-08-19T14:53:05;13.05;;;5.35;;
51957;SDS011;41120;51.820;20.804;2022-08-19T14:55:41;8.02;;;5.40;;
51957;SDS011;41120;51.820;20.804;2022-08-19T14:58:12;8.23;;;5.68;;
51957;SDS011;41120;51.820;20.804;2022-08-19T15:08:58;11.65;;;5.40;;
51957;SDS011;41120;51.820;20.804;2022-08-19T15:11:35;5.80;;;5.20;;
51957;SDS011;41120;51.820;20.804;2022-08-19T15:14:12;6.32;;;5.10;;
51957;SDS011;41120;51.820;20.804;2022-08-19T15:16:41;9.13;;;5.45;;
51957;SDS011;41120;51.820;20.804;2022-08-19T15:19:15;7.07;;;5.35;;
51957;SDS011;41120;51.820;20.804;2022-08-19T15:21:57;12.00;;;5.80;;
51957;SDS011;41120;51.820;20.804;2022-08-19T15:29:58;8.13;;;5.78;;
51957;SDS011;41120;51.820;20.804;2022-08-19T15:35:12;10.05;;;5.47;;
51957;SDS011;41120;51.820;20.804;2022-08-19T15:37:44;6.60;;;5.60;;
51957;SDS011;41120;51.820;20.804;2022-08-19T15:40:13;6.68;;;5.53;;
51957;SDS011;41120;51.820;20.804;2022-08-19T15:42:50;6.78;;;5.53;;
51957;SDS011;41120;51.820;20.804;2022-08-19T15:48:33;8.68;;;5.68;;
51957;SDS011;41120;51.820;20.804;2022-08-19T15:51:10;11.70;;;5.47;;
51957;SDS011;41120;51.820;20.804;2022-08-19T15:53:50;7.38;;;5.53;;
51957;SDS011;41120;51.820;20.804;2022-08-19T15:56:17;7.57;;;5.88;;
51957;SDS011;41120;51.820;20.804;2022-08-19T15:58:45;8.45;;;5.97;;
51957;SDS011;41120;51.820;20.804;2022-08-19T16:04:24;7.43;;;5.57;;
51957;SDS011;41120;51.820;20.804;2022-08-19T16:07:11;9.65;;;6.15;;
51957;SDS011;41120;51.820;20.804;2022-08-19T16:12:42;7.65;;;5.35;;
51957;SDS011;41120;51.820;20.804;2022-08-19T16:15:14;10.60;;;5.50;;
51957;SDS011;41120;51.820;20.804;2022-08-19T16:17:47;10.15;;;5.65;;
51957;SDS011;41120;51.820;20.804;2022-08-19T16:20:13;12.55;;;5.53;;
51957;SDS011;41120;51.820;20.804;2022-08-19T16:22:43;7.20;;;5.13;;
51957;SDS011;41120;51.820;20.804;2022-08-19T16:28:00;10.20;;;5.60;;
51957;SDS011;41120;51.820;20.804;2022-08-19T16:33:13;9.07;;;5.95;;
51957;SDS011;41120;51.820;20.804;2022-08-19T16:38:40;10.15;;;5.53;;
51957;SDS011;41120;51.820;20.804;2022-08-19T16:41:09;8.80;;;5.03;;
51957;SDS011;41120;51.820;20.804;2022-08-19T16:43:44;10.60;;;5.63;;
51957;SDS011;41120;51.820;20.804;2022-08-19T16:46:15;10.63;;;5.20;;
51957;SDS011;41120;51.820;20.804;2022-08-19T16:51:32;12.48;;;6.10;;
51957;SDS011;41120;51.820;20.804;2022-08-19T16:54:00;10.80;;;4.97;;
51957;SDS011;41120;51.820;20.804;2022-08-19T16:56:28;8.30;;;5.38;;
51957;SDS011;41120;51.820;20.804;2022-08-19T17:04:38;12.35;;;5.43;;
51957;SDS011;41120;51.820;20.804;2022-08-19T17:07:05;11.32;;;5.63;;
51957;SDS011;41120;51.820;20.804;2022-08-19T17:12:05;9.73;;;5.60;;
51957;SDS011;41120;51.820;20.804;2022-08-19T17:14:33;8.95;;;5.78;;
51957;SDS011;41120;51.820;20.804;2022-08-19T17:19:45;8.38;;;5.63;;
51957;SDS011;41120;51.820;20.804;2022-08-19T17:22:13;11.75;;;5.38;;
51957;SDS011;41120;51.820;20.804;2022-08-19T17:24:39;12.10;;;5.80;;
51957;SDS011;41120;51.820;20.804;2022-08-19T17:27:06;14.30;;;5.90;;
51957;SDS011;41120;51.820;20.804;2022-08-19T17:29:34;11.18;;;5.57;;
51957;SDS011;41120;51.820;20.804;2022-08-19T17:32:01;10.82;;;6.15;;
51957;SDS011;41120;51.820;20.804;2022-08-19T17:37:06;12.75;;;6.63;;
51957;SDS011;41120;51.820;20.804;2022-08-19T17:39:38;13.63;;;7.15;;
51957;SDS011;41120;51.820;20.804;2022-08-19T17:44:48;11.40;;;7.47;;
51957;SDS011;41120;51.820;20.804;2022-08-19T17:47:14;13.33;;;7.33;;
51957;SDS011;41120;51.820;20.804;2022-08-19T17:49:46;12.77;;;7.23;;
51957;SDS011;41120;51.820;20.804;2022-08-19T17:52:15;13.77;;;8.10;;
51957;SDS011;41120;51.820;20.804;2022-08-19T17:54:51;11.47;;;7.23;;
51957;SDS011;41120;51.820;20.804;2022-08-19T17:57:19;10.93;;;7.53;;
51957;SDS011;41120;51.820;20.804;2022-08-19T17:59:45;14.10;;;6.87;;
51957;SDS011;41120;51.820;20.804;2022-08-19T18:02:14;9.63;;;6.50;;
51957;SDS011;41120;51.820;20.804;2022-08-19T18:04:41;9.27;;;6.87;;
51957;SDS011;41120;51.820;20.804;2022-08-19T18:07:16;9.67;;;6.70;;
51957;SDS011;41120;51.820;20.804;2022-08-19T18:09:47;9.60;;;6.50;;
51957;SDS011;41120;51.820;20.804;2022-08-19T18:12:25;9.63;;;6.93;;
51957;SDS011;41120;51.820;20.804;2022-08-19T18:14:58;16.17;;;7.27;;
51957;SDS011;41120;51.820;20.804;2022-08-19T18:17:34;14.63;;;7.03;;
51957;SDS011;41120;51.820;20.804;2022-08-19T18:20:09;10.00;;;6.33;;
51957;SDS011;41120;51.820;20.804;2022-08-19T18:22:40;11.40;;;6.70;;
51957;SDS011;41120;51.820;20.804;2022-08-19T18:30:41;12.60;;;6.57;;
51957;SDS011;41120;51.820;20.804;2022-08-19T18:33:15;10.73;;;6.13;;
51957;SDS011;41120;51.820;20.804;2022-08-19T18:38:19;10.50;;;6.53;;
51957;SDS011;41120;51.820;20.804;2022-08-19T18:41:07;13.00;;;6.37;;
51957;SDS011;41120;51.820;20.804;2022-08-19T18:44:01;9.73;;;7.07;;
51957;SDS011;41120;51.820;20.804;2022-08-19T18:46:47;12.27;;;6.97;;
51957;SDS011;41120;51.820;20.804;2022-08-19T18:49:32;12.90;;;7.03;;
51957;SDS011;41120;51.820;20.804;2022-08-19T18:52:05;13.93;;;7.33;;
51957;SDS011;41120;51.820;20.804;2022-08-19T18:57:31;12.33;;;7.23;;
51957;SDS011;41120;51.820;20.804;2022-08-19T18:59:57;11.87;;;6.77;;
51957;SDS011;41120;51.820;20.804;2022-08-19T19:02:35;10.60;;;6.87;;
51957;SDS011;41120;51.820;20.804;2022-08-19T19:05:18;10.60;;;6.63;;
51957;SDS011;41120;51.820;20.804;2022-08-19T19:07:47;14.57;;;6.63;;
51957;SDS011;41120;51.820;20.804;2022-08-19T19:10:17;11.13;;;6.53;;
51957;SDS011;41120;51.820;20.804;2022-08-19T19:12:49;12.67;;;7.10;;
51957;SDS011;41120;51.820;20.804;2022-08-19T19:15:16;11.03;;;6.57;;
51957;SDS011;41120;51.820;20.804;2022-08-19T19:17:43;11.10;;;6.13;;
51957;SDS011;41120;51.820;20.804;2022-08-19T19:20:10;10.63;;;6.00;;
51957;SDS011;41120;51.820;20.804;2022-08-19T19:22:36;10.83;;;6.57;;
51957;SDS011;41120;51.820;20.804;2022-08-19T19:25:11;10.67;;;6.23;;
51957;SDS011;41120;51.820;20.804;2022-08-19T19:27:40;9.40;;;6.90;;
51957;SDS011;41120;51.820;20.804;2022-08-19T19:30:07;11.07;;;6.87;;
51957;SDS011;41120;51.820;20.804;2022-08-19T19:32:36;9.20;;;6.70;;
51957;SDS011;41120;51.820;20.804;2022-08-19T19:35:04;11.03;;;7.00;;
51957;SDS011;41120;51.820;20.804;2022-08-19T19:37:31;10.60;;;6.50;;